sensor_id;sensor_type;location;lat;lon;timestamp;P1;durP1;ratioP1;P2;durP2;ratioP2
13463;SDS011;6804;48.774;9.174;2022-12-18T00:00:05;34.27;;;20.87;;
13463;SDS011;6804;48.774;9.174;2022-12-18T00:02:33;33.60;;;19.57;;
13463;SDS011;6804;48.774;9.174;2022-12-18T00:05:00;33.90;;;20.30;;
13463;SDS011;6804;48.774;9.174;2022-12-18T00:07:35;31.60;;;19.97;;
13463;SDS011;6804;48.774;9.174;2022-12-18T00:10:06;33.53;;;19.60;;
13463;SDS011;6804;48.774;9.174;2022-12-18T00:12:34;35.87;;;19.77;;
13463;SDS011;6804;48.774;9.174;2022-12-18T00:15:01;33.17;;;18.87;;
13463;SDS011;6804;48.774;9.174;2022-12-18T00:17:30;36.10;;;19.53;;
13463;SDS011;6804;48.774;9.174;2022-12-18T00:19:57;37.47;;;20.20;;
13463;SDS011;6804;48.774;9.174;2022-12-18T00:22:24;33.37;;;20.00;;
13463;SDS011;6804;48.774;9.174;2022-12-18T00:24:56;31.97;;;20.13;;
13463;SDS011;6804;48.774;9.174;2022-12-18T00:27:24;33.50;;;19.83;;
13463;SDS011;6804;48.774;9.174;2022-12-18T00:29:51;37.77;;;20.67;;
13463;SDS011;6804;48.774;9.174;2022-12-18T00:32:18;34.13;;;20.50;;
13463;SDS011;6804;48.774;9.174;2022-12-18T00:34:49;29.77;;;18.80;;
13463;SDS011;6804;48.774;9.174;2022-12-18T00:37:17;40.87;;;22.50;;
13463;SDS011;6804;48.774;9.174;2022-12-18T00:39:47;41.03;;;21.17;;
13463;SDS011;6804;48.774;9.174;2022-12-18T00:42:17;37.53;;;20.47;;
13463;SDS011;6804;48.774;9.174;2022-12-18T00:45:01;33.60;;;21.23;;
13463;SDS011;6804;48.774;9.174;2022-12-18T00:47:29;37.07;;;20.63;;
13463;SDS011;6804;48.774;9.174;2022-12-18T00:49:56;34.20;;;19.37;;
13463;SDS011;6804;48.774;9.174;2022-12-18T00:52:26;37.33;;;20.60;;
13463;SDS011;6804;48.774;9.174;2022-12-18T00:54:56;35.07;;;20.80;;
13463;SDS011;6804;48.774;9.174;2022-12-18T00:57:27;35.57;;;20.27;;
13463;SDS011;6804;48.774;9.174;2022-12-18T00:59:57;39.90;;;22.20;;
13463;SDS011;6804;48.774;9.174;2022-12-18T01:02:24;34.43;;;19.67;;
13463;SDS011;6804;48.774;9.174;2022-12-18T01:04:51;37.43;;;21.40;;
13463;SDS011;6804;48.774;9.174;2022-12-18T01:07:21;34.33;;;18.93;;
13463;SDS011;6804;48.774;9.174;2022-12-18T01:09:50;39.23;;;22.00;;
13463;SDS011;6804;48.774;9.174;2022-12-18T01:12:17;36.53;;;21.07;;
13463;SDS011;6804;48.774;9.174;2022-12-18T01:14:46;31.80;;;17.80;;
13463;SDS011;6804;48.774;9.174;2022-12-18T01:17:14;30.90;;;18.50;;
13463;SDS011;6804;48.774;9.174;2022-12-18T01:19:42;36.67;;;20.50;;
13463;SDS011;6804;48.774;9.174;2022-12-18T01:22:09;33.07;;;18.07;;
13463;SDS011;6804;48.774;9.174;2022-12-18T01:24:36;32.40;;;18.20;;
13463;SDS011;6804;48.774;9.174;2022-12-18T01:27:04;30.17;;;17.87;;
13463;SDS011;6804;48.774;9.174;2022-12-18T01:29:37;31.10;;;18.67;;
13463;SDS011;6804;48.774;9.174;2022-12-18T01:32:06;29.10;;;17.33;;
13463;SDS011;6804;48.774;9.174;2022-12-18T01:34:33;30.10;;;17.53;;
13463;SDS011;6804;48.774;9.174;2022-12-18T01:37:05;30.13;;;16.53;;
13463;SDS011;6804;48.774;9.174;2022-12-18T01:39:32;30.97;;;18.23;;
13463;SDS011;6804;48.774;9.174;2022-12-18T01:42:05;30.20;;;17.57;;
13463;SDS011;6804;48.774;9.174;2022-12-18T01:47:41;28.17;;;17.33;;
13463;SDS011;6804;48.774;9.174;2022-12-18T01:50:17;32.53;;;17.83;;
13463;SDS011;6804;48.774;9.174;2022-12-18T01:52:47;31.23;;;18.00;;
13463;SDS011;6804;48.774;9.174;2022-12-18T01:55:18;33.20;;;18.40;;
13463;SDS011;6804;48.774;9.174;2022-12-18T01:57:48;29.37;;;17.20;;
13463;SDS011;6804;48.774;9.174;2022-12-18T02:00:21;32.93;;;19.30;;
13463;SDS011;6804;48.774;9.174;2022-12-18T02:02:51;34.43;;;19.33;;
13463;SDS011;6804;48.774;9.174;2022-12-18T02:05:22;29.30;;;17.43;;
13463;SDS011;6804;48.774;9.174;2022-12-18T02:08:05;29.80;;;18.00;;
13463;SDS011;6804;48.774;9.174;2022-12-18T02:10:39;45.10;;;25.10;;
13463;SDS011;6804;48.774;9.174;2022-12-18T02:13:14;44.97;;;21.87;;
13463;SDS011;6804;48.774;9.174;2022-12-18T02:15:49;33.37;;;19.63;;
13463;SDS011;6804;48.774;9.174;2022-12-18T02:18:28;33.27;;;17.77;;
13463;SDS011;6804;48.774;9.174;2022-12-18T02:20:59;34.60;;;19.07;;
13463;SDS011;6804;48.774;9.174;2022-12-18T02:23:41;32.30;;;18.37;;
13463;SDS011;6804;48.774;9.174;2022-12-18T02:26:20;29.77;;;17.57;;
13463;SDS011;6804;48.774;9.174;2022-12-18T02:28:56;30.13;;;19.00;;
13463;SDS011;6804;48.774;9.174;2022-12-18T02:31:29;29.90;;;18.23;;
13463;SDS011;6804;48.774;9.174;2022-12-18T02:34:06;33.17;;;17.13;;
13463;SDS011;6804;48.774;9.174;2022-12-18T02:36:39;29.13;;;16.27;;
13463;SDS011;6804;48.774;9.174;2022-12-18T02:39:09;31.67;;;18.97;;
13463;SDS011;6804;48.774;9.174;2022-12-18T02:41:40;30.43;;;16.77;;
13463;SDS011;6804;48.774;9.174;2022-12-18T02:44:08;27.97;;;16.60;;
13463;SDS011;6804;48.774;9.174;2022-12-18T02:46:38;28.67;;;17.33;;
13463;SDS011;6804;48.774;9.174;2022-12-18T02:49:12;29.00;;;17.03;;
13463;SDS011;6804;48.774;9.174;2022-12-18T02:51:56;28.43;;;16.50;;
13463;SDS011;6804;48.774;9.174;2022-12-18T02:54:36;27.33;;;15.50;;
13463;SDS011;6804;48.774;9.174;2022-12-18T02:57:18;26.83;;;16.17;;
13463;SDS011;6804;48.774;9.174;2022-12-18T02:59:54;34.33;;;19.83;;
13463;SDS011;6804;48.774;9.174;2022-12-18T03:02:28;32.07;;;16.47;;
13463;SDS011;6804;48.774;9.174;2022-12-18T03:05:03;29.57;;;17.00;;
13463;SDS011;6804;48.774;9.174;2022-12-18T03:07:38;29.73;;;17.27;;
13463;SDS011;6804;48.774;9.174;2022-12-18T03:10:12;26.77;;;15.73;;
13463;SDS011;6804;48.774;9.174;2022-12-18T03:12:45;26.97;;;15.40;;
13463;SDS011;6804;48.774;9.174;2022-12-18T03:15:19;27.63;;;16.50;;
13463;SDS011;6804;48.774;9.174;2022-12-18T03:17:50;28.13;;;15.07;;
13463;SDS011;6804;48.774;9.174;2022-12-18T03:20:22;31.13;;;16.73;;
13463;SDS011;6804;48.774;9.174;2022-12-18T03:22:53;26.63;;;15.73;;
13463;SDS011;6804;48.774;9.174;2022-12-18T03:25:26;24.43;;;15.10;;
13463;SDS011;6804;48.774;9.174;2022-12-18T03:27:56;27.90;;;14.53;;
13463;SDS011;6804;48.774;9.174;2022-12-18T03:30:26;27.43;;;15.37;;
13463;SDS011;6804;48.774;9.174;2022-12-18T03:33:00;27.93;;;16.13;;
13463;SDS011;6804;48.774;9.174;2022-12-18T03:35:34;30.43;;;17.00;;
13463;SDS011;6804;48.774;9.174;2022-12-18T03:38:05;28.17;;;16.50;;
13463;SDS011;6804;48.774;9.174;2022-12-18T03:40:35;29.73;;;16.07;;
13463;SDS011;6804;48.774;9.174;2022-12-18T03:43:18;30.50;;;15.60;;
13463;SDS011;6804;48.774;9.174;2022-12-18T03:45:59;25.40;;;15.37;;
13463;SDS011;6804;48.774;9.174;2022-12-18T03:48:31;26.37;;;14.97;;
13463;SDS011;6804;48.774;9.174;2022-12-18T03:51:05;25.33;;;14.97;;
13463;SDS011;6804;48.774;9.174;2022-12-18T03:53:38;23.50;;;14.07;;
13463;SDS011;6804;48.774;9.174;2022-12-18T03:58:56;23.50;;;14.60;;
13463;SDS011;6804;48.774;9.174;2022-12-18T04:01:32;25.80;;;15.00;;
13463;SDS011;6804;48.774;9.174;2022-12-18T04:04:00;21.73;;;14.17;;
13463;SDS011;6804;48.774;9.174;2022-12-18T04:06:28;23.47;;;14.03;;
13463;SDS011;6804;48.774;9.174;2022-12-18T04:08:57;23.03;;;14.47;;
13463;SDS011;6804;48.774;9.174;2022-12-18T04:11:31;23.70;;;14.03;;
13463;SDS011;6804;48.774;9.174;2022-12-18T04:14:03;23.70;;;13.07;;
13463;SDS011;6804;48.774;9.174;2022-12-18T04:16:30;24.90;;;14.00;;
13463;SDS011;6804;48.774;9.174;2022-12-18T04:18:59;21.93;;;13.83;;
13463;SDS011;6804;48.774;9.174;2022-12-18T04:21:32;23.90;;;14.57;;
13463;SDS011;6804;48.774;9.174;2022-12-18T04:24:00;23.40;;;14.47;;
13463;SDS011;6804;48.774;9.174;2022-12-18T04:26:27;25.73;;;15.93;;
13463;SDS011;6804;48.774;9.174;2022-12-18T04:28:57;22.97;;;13.97;;
13463;SDS011;6804;48.774;9.174;2022-12-18T04:31:28;25.87;;;15.03;;
13463;SDS011;6804;48.774;9.174;2022-12-18T04:33:55;21.90;;;14.23;;
13463;SDS011;6804;48.774;9.174;2022-12-18T04:36:22;26.33;;;14.93;;
13463;SDS011;6804;48.774;9.174;2022-12-18T04:38:49;23.97;;;13.83;;
13463;SDS011;6804;48.774;9.174;2022-12-18T04:41:17;23.43;;;13.47;;
13463;SDS011;6804;48.774;9.174;2022-12-18T04:43:44;25.03;;;13.77;;
13463;SDS011;6804;48.774;9.174;2022-12-18T04:46:11;25.47;;;14.60;;
13463;SDS011;6804;48.774;9.174;2022-12-18T04:48:40;22.37;;;13.53;;
13463;SDS011;6804;48.774;9.174;2022-12-18T04:51:08;27.97;;;15.10;;
13463;SDS011;6804;48.774;9.174;2022-12-18T04:53:35;22.50;;;13.97;;
13463;SDS011;6804;48.774;9.174;2022-12-18T04:56:03;25.07;;;13.80;;
13463;SDS011;6804;48.774;9.174;2022-12-18T04:58:31;25.73;;;14.97;;
13463;SDS011;6804;48.774;9.174;2022-12-18T05:00:59;26.43;;;14.03;;
13463;SDS011;6804;48.774;9.174;2022-12-18T05:03:26;26.20;;;15.07;;
13463;SDS011;6804;48.774;9.174;2022-12-18T05:05:59;23.60;;;13.40;;
13463;SDS011;6804;48.774;9.174;2022-12-18T05:08:26;25.73;;;13.67;;
13463;SDS011;6804;48.774;9.174;2022-12-18T05:11:06;27.93;;;16.97;;
13463;SDS011;6804;48.774;9.174;2022-12-18T05:13:43;24.47;;;14.37;;
13463;SDS011;6804;48.774;9.174;2022-12-18T05:16:10;25.40;;;14.93;;
13463;SDS011;6804;48.774;9.174;2022-12-18T05:18:41;23.93;;;13.47;;
13463;SDS011;6804;48.774;9.174;2022-12-18T05:21:10;24.07;;;14.03;;
13463;SDS011;6804;48.774;9.174;2022-12-18T05:23:38;26.00;;;13.40;;
13463;SDS011;6804;48.774;9.174;2022-12-18T05:26:15;21.30;;;13.43;;
13463;SDS011;6804;48.774;9.174;2022-12-18T05:28:43;22.23;;;13.47;;
13463;SDS011;6804;48.774;9.174;2022-12-18T05:31:11;23.00;;;13.30;;
13463;SDS011;6804;48.774;9.174;2022-12-18T05:33:43;20.97;;;12.97;;
13463;SDS011;6804;48.774;9.174;2022-12-18T05:36:14;24.23;;;13.70;;
13463;SDS011;6804;48.774;9.174;2022-12-18T05:38:44;23.17;;;14.10;;
13463;SDS011;6804;48.774;9.174;2022-12-18T05:41:11;24.17;;;13.40;;
13463;SDS011;6804;48.774;9.174;2022-12-18T05:43:40;23.63;;;13.70;;
13463;SDS011;6804;48.774;9.174;2022-12-18T05:46:12;23.33;;;13.83;;
13463;SDS011;6804;48.774;9.174;2022-12-18T05:48:40;24.37;;;13.80;;
13463;SDS011;6804;48.774;9.174;2022-12-18T05:51:13;26.33;;;13.93;;
13463;SDS011;6804;48.774;9.174;2022-12-18T05:53:42;24.27;;;13.63;;
13463;SDS011;6804;48.774;9.174;2022-12-18T05:56:10;24.27;;;13.47;;
13463;SDS011;6804;48.774;9.174;2022-12-18T05:58:39;25.07;;;13.40;;
13463;SDS011;6804;48.774;9.174;2022-12-18T06:01:10;23.30;;;13.83;;
13463;SDS011;6804;48.774;9.174;2022-12-18T06:03:39;22.93;;;13.77;;
13463;SDS011;6804;48.774;9.174;2022-12-18T06:06:12;22.80;;;13.63;;
13463;SDS011;6804;48.774;9.174;2022-12-18T06:08:42;21.53;;;13.37;;
13463;SDS011;6804;48.774;9.174;2022-12-18T06:11:09;22.57;;;14.07;;
13463;SDS011;6804;48.774;9.174;2022-12-18T06:13:37;24.33;;;14.20;;
13463;SDS011;6804;48.774;9.174;2022-12-18T06:16:04;24.57;;;14.07;;
13463;SDS011;6804;48.774;9.174;2022-12-18T06:18:33;21.93;;;13.33;;
13463;SDS011;6804;48.774;9.174;2022-12-18T06:21:00;22.20;;;14.07;;
13463;SDS011;6804;48.774;9.174;2022-12-18T06:23:29;22.60;;;13.60;;
13463;SDS011;6804;48.774;9.174;2022-12-18T06:26:03;23.13;;;13.40;;
13463;SDS011;6804;48.774;9.174;2022-12-18T06:28:35;22.83;;;12.87;;
13463;SDS011;6804;48.774;9.174;2022-12-18T06:31:02;25.47;;;13.73;;
13463;SDS011;6804;48.774;9.174;2022-12-18T06:33:30;20.07;;;13.27;;
13463;SDS011;6804;48.774;9.174;2022-12-18T06:35:59;25.03;;;14.13;;
13463;SDS011;6804;48.774;9.174;2022-12-18T06:38:35;24.90;;;13.20;;
13463;SDS011;6804;48.774;9.174;2022-12-18T06:41:05;24.03;;;13.73;;
13463;SDS011;6804;48.774;9.174;2022-12-18T06:43:36;19.97;;;12.33;;
13463;SDS011;6804;48.774;9.174;2022-12-18T06:46:04;24.13;;;13.47;;
13463;SDS011;6804;48.774;9.174;2022-12-18T06:48:31;25.00;;;13.67;;
13463;SDS011;6804;48.774;9.174;2022-12-18T06:50:59;20.10;;;12.77;;
13463;SDS011;6804;48.774;9.174;2022-12-18T06:53:26;23.37;;;13.00;;
13463;SDS011;6804;48.774;9.174;2022-12-18T06:56:01;24.83;;;13.77;;
13463;SDS011;6804;48.774;9.174;2022-12-18T06:58:33;19.73;;;12.33;;
13463;SDS011;6804;48.774;9.174;2022-12-18T07:01:06;21.17;;;11.70;;
13463;SDS011;6804;48.774;9.174;2022-12-18T07:03:35;21.20;;;13.23;;
13463;SDS011;6804;48.774;9.174;2022-12-18T07:06:06;23.70;;;12.73;;
13463;SDS011;6804;48.774;9.174;2022-12-18T07:08:39;20.10;;;12.63;;
13463;SDS011;6804;48.774;9.174;2022-12-18T07:11:08;24.27;;;13.47;;
13463;SDS011;6804;48.774;9.174;2022-12-18T07:13:35;22.93;;;12.97;;
13463;SDS011;6804;48.774;9.174;2022-12-18T07:16:11;21.57;;;13.13;;
13463;SDS011;6804;48.774;9.174;2022-12-18T07:18:41;24.43;;;14.23;;
13463;SDS011;6804;48.774;9.174;2022-12-18T07:21:12;21.63;;;12.93;;
13463;SDS011;6804;48.774;9.174;2022-12-18T07:23:41;25.40;;;13.97;;
13463;SDS011;6804;48.774;9.174;2022-12-18T07:26:11;24.47;;;12.87;;
13463;SDS011;6804;48.774;9.174;2022-12-18T07:28:44;20.67;;;13.20;;
13463;SDS011;6804;48.774;9.174;2022-12-18T07:31:14;24.13;;;13.37;;
13463;SDS011;6804;48.774;9.174;2022-12-18T07:33:43;23.77;;;13.23;;
13463;SDS011;6804;48.774;9.174;2022-12-18T07:36:12;23.33;;;13.33;;
13463;SDS011;6804;48.774;9.174;2022-12-18T07:38:43;24.33;;;12.67;;
13463;SDS011;6804;48.774;9.174;2022-12-18T07:41:14;23.40;;;13.10;;
13463;SDS011;6804;48.774;9.174;2022-12-18T07:43:43;22.47;;;13.73;;
13463;SDS011;6804;48.774;9.174;2022-12-18T07:46:12;22.87;;;13.37;;
13463;SDS011;6804;48.774;9.174;2022-12-18T07:48:41;22.73;;;13.67;;
13463;SDS011;6804;48.774;9.174;2022-12-18T07:51:08;22.27;;;13.63;;
13463;SDS011;6804;48.774;9.174;2022-12-18T07:53:39;23.77;;;13.03;;
13463;SDS011;6804;48.774;9.174;2022-12-18T07:56:07;22.53;;;12.87;;
13463;SDS011;6804;48.774;9.174;2022-12-18T07:58:40;20.93;;;12.90;;
13463;SDS011;6804;48.774;9.174;2022-12-18T08:01:07;28.33;;;14.80;;
13463;SDS011;6804;48.774;9.174;2022-12-18T08:03:39;22.67;;;13.47;;
13463;SDS011;6804;48.774;9.174;2022-12-18T08:06:07;21.70;;;13.13;;
13463;SDS011;6804;48.774;9.174;2022-12-18T08:08:36;22.90;;;13.13;;
13463;SDS011;6804;48.774;9.174;2022-12-18T08:11:03;22.60;;;12.77;;
13463;SDS011;6804;48.774;9.174;2022-12-18T08:13:35;23.50;;;13.87;;
13463;SDS011;6804;48.774;9.174;2022-12-18T08:16:10;23.50;;;13.00;;
13463;SDS011;6804;48.774;9.174;2022-12-18T08:18:37;25.23;;;14.30;;
13463;SDS011;6804;48.774;9.174;2022-12-18T08:21:07;23.63;;;13.80;;
13463;SDS011;6804;48.774;9.174;2022-12-18T08:23:35;21.53;;;13.13;;
13463;SDS011;6804;48.774;9.174;2022-12-18T08:26:02;24.90;;;12.87;;
13463;SDS011;6804;48.774;9.174;2022-12-18T08:28:32;23.30;;;14.13;;
13463;SDS011;6804;48.774;9.174;2022-12-18T08:31:00;22.70;;;13.10;;
13463;SDS011;6804;48.774;9.174;2022-12-18T08:33:31;28.83;;;14.93;;
13463;SDS011;6804;48.774;9.174;2022-12-18T08:35:59;22.40;;;12.73;;
13463;SDS011;6804;48.774;9.174;2022-12-18T08:38:31;28.43;;;13.60;;
13463;SDS011;6804;48.774;9.174;2022-12-18T08:40:58;25.70;;;13.30;;
13463;SDS011;6804;48.774;9.174;2022-12-18T08:43:29;25.53;;;14.23;;
13463;SDS011;6804;48.774;9.174;2022-12-18T08:46:15;29.23;;;13.60;;
13463;SDS011;6804;48.774;9.174;2022-12-18T08:48:44;25.13;;;13.83;;
13463;SDS011;6804;48.774;9.174;2022-12-18T08:51:12;21.17;;;12.90;;
13463;SDS011;6804;48.774;9.174;2022-12-18T08:53:45;21.30;;;13.57;;
13463;SDS011;6804;48.774;9.174;2022-12-18T08:56:15;23.07;;;14.13;;
13463;SDS011;6804;48.774;9.174;2022-12-18T08:58:45;24.43;;;13.87;;
13463;SDS011;6804;48.774;9.174;2022-12-18T09:01:15;24.13;;;13.80;;
13463;SDS011;6804;48.774;9.174;2022-12-18T09:03:46;24.87;;;13.27;;
13463;SDS011;6804;48.774;9.174;2022-12-18T09:06:17;26.80;;;15.17;;
13463;SDS011;6804;48.774;9.174;2022-12-18T09:08:46;25.23;;;14.33;;
13463;SDS011;6804;48.774;9.174;2022-12-18T09:11:19;22.77;;;14.00;;
13463;SDS011;6804;48.774;9.174;2022-12-18T09:13:51;27.27;;;14.83;;
13463;SDS011;6804;48.774;9.174;2022-12-18T09:16:22;22.70;;;14.17;;
13463;SDS011;6804;48.774;9.174;2022-12-18T09:18:51;24.87;;;15.40;;
13463;SDS011;6804;48.774;9.174;2022-12-18T09:21:24;22.67;;;15.30;;
13463;SDS011;6804;48.774;9.174;2022-12-18T09:23:53;29.47;;;17.40;;
13463;SDS011;6804;48.774;9.174;2022-12-18T09:26:22;26.17;;;15.03;;
13463;SDS011;6804;48.774;9.174;2022-12-18T09:28:51;31.60;;;18.17;;
13463;SDS011;6804;48.774;9.174;2022-12-18T09:31:19;34.00;;;19.97;;
13463;SDS011;6804;48.774;9.174;2022-12-18T09:33:52;28.70;;;16.37;;
13463;SDS011;6804;48.774;9.174;2022-12-18T09:36:20;31.57;;;16.83;;
13463;SDS011;6804;48.774;9.174;2022-12-18T09:38:48;25.07;;;15.70;;
13463;SDS011;6804;48.774;9.174;2022-12-18T09:41:30;23.23;;;14.13;;
13463;SDS011;6804;48.774;9.174;2022-12-18T09:44:11;24.77;;;14.80;;
13463;SDS011;6804;48.774;9.174;2022-12-18T09:46:45;25.67;;;15.67;;
13463;SDS011;6804;48.774;9.174;2022-12-18T09:49:22;26.97;;;16.00;;
13463;SDS011;6804;48.774;9.174;2022-12-18T09:51:54;24.17;;;14.63;;
13463;SDS011;6804;48.774;9.174;2022-12-18T09:54:35;30.70;;;17.63;;
13463;SDS011;6804;48.774;9.174;2022-12-18T09:57:10;25.77;;;17.00;;
13463;SDS011;6804;48.774;9.174;2022-12-18T09:59:41;30.63;;;17.20;;
13463;SDS011;6804;48.774;9.174;2022-12-18T10:02:13;29.73;;;15.53;;
13463;SDS011;6804;48.774;9.174;2022-12-18T10:04:43;25.03;;;15.70;;
13463;SDS011;6804;48.774;9.174;2022-12-18T10:07:18;28.33;;;16.17;;
13463;SDS011;6804;48.774;9.174;2022-12-18T10:09:52;30.63;;;16.33;;
13463;SDS011;6804;48.774;9.174;2022-12-18T10:12:28;35.67;;;16.17;;
13463;SDS011;6804;48.774;9.174;2022-12-18T10:15:07;26.10;;;15.43;;
13463;SDS011;6804;48.774;9.174;2022-12-18T10:17:42;26.57;;;16.17;;
13463;SDS011;6804;48.774;9.174;2022-12-18T10:20:21;32.83;;;16.73;;
13463;SDS011;6804;48.774;9.174;2022-12-18T10:23:00;24.93;;;14.57;;
13463;SDS011;6804;48.774;9.174;2022-12-18T10:25:38;30.83;;;16.10;;
13463;SDS011;6804;48.774;9.174;2022-12-18T10:28:14;26.97;;;15.73;;
13463;SDS011;6804;48.774;9.174;2022-12-18T10:30:43;28.83;;;16.33;;
13463;SDS011;6804;48.774;9.174;2022-12-18T10:33:11;25.33;;;14.73;;
13463;SDS011;6804;48.774;9.174;2022-12-18T10:35:46;24.63;;;13.63;;
13463;SDS011;6804;48.774;9.174;2022-12-18T10:38:23;25.23;;;14.40;;
13463;SDS011;6804;48.774;9.174;2022-12-18T10:40:52;27.97;;;14.97;;
13463;SDS011;6804;48.774;9.174;2022-12-18T10:43:24;27.07;;;15.37;;
13463;SDS011;6804;48.774;9.174;2022-12-18T10:48:52;23.30;;;13.40;;
13463;SDS011;6804;48.774;9.174;2022-12-18T10:51:26;24.57;;;15.07;;
13463;SDS011;6804;48.774;9.174;2022-12-18T10:53:56;24.33;;;14.13;;
13463;SDS011;6804;48.774;9.174;2022-12-18T10:56:28;23.10;;;14.17;;
13463;SDS011;6804;48.774;9.174;2022-12-18T10:59:02;24.47;;;14.87;;
13463;SDS011;6804;48.774;9.174;2022-12-18T11:01:33;24.70;;;14.20;;
13463;SDS011;6804;48.774;9.174;2022-12-18T11:04:16;28.53;;;15.33;;
13463;SDS011;6804;48.774;9.174;2022-12-18T11:06:57;26.47;;;15.17;;
13463;SDS011;6804;48.774;9.174;2022-12-18T11:09:30;26.57;;;16.23;;
13463;SDS011;6804;48.774;9.174;2022-12-18T11:11:59;24.50;;;14.60;;
13463;SDS011;6804;48.774;9.174;2022-12-18T11:14:33;27.13;;;15.70;;
13463;SDS011;6804;48.774;9.174;2022-12-18T11:17:17;25.37;;;15.40;;
13463;SDS011;6804;48.774;9.174;2022-12-18T11:19:55;25.73;;;15.40;;
13463;SDS011;6804;48.774;9.174;2022-12-18T11:22:24;25.20;;;14.17;;
13463;SDS011;6804;48.774;9.174;2022-12-18T11:24:55;29.27;;;18.33;;
13463;SDS011;6804;48.774;9.174;2022-12-18T11:27:27;26.87;;;17.40;;
13463;SDS011;6804;48.774;9.174;2022-12-18T11:30:07;23.60;;;12.60;;
13463;SDS011;6804;48.774;9.174;2022-12-18T11:32:36;26.43;;;15.27;;
13463;SDS011;6804;48.774;9.174;2022-12-18T11:35:10;24.37;;;13.53;;
13463;SDS011;6804;48.774;9.174;2022-12-18T11:37:45;26.47;;;13.80;;
13463;SDS011;6804;48.774;9.174;2022-12-18T11:40:19;24.60;;;13.67;;
13463;SDS011;6804;48.774;9.174;2022-12-18T11:42:53;26.17;;;14.43;;
13463;SDS011;6804;48.774;9.174;2022-12-18T11:45:26;26.37;;;13.33;;
13463;SDS011;6804;48.774;9.174;2022-12-18T11:48:00;29.80;;;16.83;;
13463;SDS011;6804;48.774;9.174;2022-12-18T11:50:32;28.03;;;17.40;;
13463;SDS011;6804;48.774;9.174;2022-12-18T11:53:13;24.37;;;15.33;;
13463;SDS011;6804;48.774;9.174;2022-12-18T11:55:49;27.03;;;15.93;;
13463;SDS011;6804;48.774;9.174;2022-12-18T11:58:25;28.67;;;15.97;;
13463;SDS011;6804;48.774;9.174;2022-12-18T12:01:07;24.70;;;14.97;;
13463;SDS011;6804;48.774;9.174;2022-12-18T12:03:53;26.70;;;15.53;;
13463;SDS011;6804;48.774;9.174;2022-12-18T12:06:32;26.10;;;15.37;;
13463;SDS011;6804;48.774;9.174;2022-12-18T12:09:10;25.50;;;15.37;;
13463;SDS011;6804;48.774;9.174;2022-12-18T12:11:48;26.80;;;15.20;;
13463;SDS011;6804;48.774;9.174;2022-12-18T12:17:13;25.97;;;15.80;;
13463;SDS011;6804;48.774;9.174;2022-12-18T12:19:52;25.40;;;14.63;;
13463;SDS011;6804;48.774;9.174;2022-12-18T12:22:32;27.07;;;15.27;;
13463;SDS011;6804;48.774;9.174;2022-12-18T12:25:13;26.57;;;15.60;;
13463;SDS011;6804;48.774;9.174;2022-12-18T12:27:53;25.90;;;14.20;;
13463;SDS011;6804;48.774;9.174;2022-12-18T12:30:32;24.77;;;14.60;;
13463;SDS011;6804;48.774;9.174;2022-12-18T12:33:12;25.53;;;15.23;;
13463;SDS011;6804;48.774;9.174;2022-12-18T12:35:52;27.27;;;15.97;;
13463;SDS011;6804;48.774;9.174;2022-12-18T12:38:32;24.63;;;14.33;;
13463;SDS011;6804;48.774;9.174;2022-12-18T12:41:13;23.63;;;14.13;;
13463;SDS011;6804;48.774;9.174;2022-12-18T12:43:57;24.23;;;14.17;;
13463;SDS011;6804;48.774;9.174;2022-12-18T12:46:27;28.73;;;15.80;;
13463;SDS011;6804;48.774;9.174;2022-12-18T12:49:03;29.17;;;15.40;;
13463;SDS011;6804;48.774;9.174;2022-12-18T12:51:38;24.60;;;13.97;;
13463;SDS011;6804;48.774;9.174;2022-12-18T12:54:13;25.47;;;14.70;;
13463;SDS011;6804;48.774;9.174;2022-12-18T12:56:48;23.77;;;13.93;;
13463;SDS011;6804;48.774;9.174;2022-12-18T12:59:29;25.10;;;14.73;;
13463;SDS011;6804;48.774;9.174;2022-12-18T13:02:10;22.87;;;13.17;;
13463;SDS011;6804;48.774;9.174;2022-12-18T13:04:52;23.33;;;13.73;;
13463;SDS011;6804;48.774;9.174;2022-12-18T13:07:26;23.80;;;13.63;;
13463;SDS011;6804;48.774;9.174;2022-12-18T13:10:23;24.43;;;13.73;;
13463;SDS011;6804;48.774;9.174;2022-12-18T13:13:04;26.27;;;14.87;;
13463;SDS011;6804;48.774;9.174;2022-12-18T13:15:33;23.53;;;14.20;;
13463;SDS011;6804;48.774;9.174;2022-12-18T13:18:11;25.67;;;14.50;;
13463;SDS011;6804;48.774;9.174;2022-12-18T13:20:42;27.13;;;15.13;;
13463;SDS011;6804;48.774;9.174;2022-12-18T13:28:59;23.47;;;13.97;;
13463;SDS011;6804;48.774;9.174;2022-12-18T13:34:34;24.43;;;14.57;;
13463;SDS011;6804;48.774;9.174;2022-12-18T13:43:32;25.10;;;14.53;;
13463;SDS011;6804;48.774;9.174;2022-12-18T13:46:06;25.37;;;16.90;;
13463;SDS011;6804;48.774;9.174;2022-12-18T13:48:50;24.70;;;15.47;;
13463;SDS011;6804;48.774;9.174;2022-12-18T13:51:23;26.00;;;14.80;;
13463;SDS011;6804;48.774;9.174;2022-12-18T13:53:53;23.67;;;14.50;;
13463;SDS011;6804;48.774;9.174;2022-12-18T13:56:26;25.27;;;14.53;;
13463;SDS011;6804;48.774;9.174;2022-12-18T13:59:05;25.33;;;14.43;;
13463;SDS011;6804;48.774;9.174;2022-12-18T14:01:48;26.27;;;15.50;;
13463;SDS011;6804;48.774;9.174;2022-12-18T14:04:19;27.27;;;16.67;;
13463;SDS011;6804;48.774;9.174;2022-12-18T14:06:55;23.83;;;15.17;;
13463;SDS011;6804;48.774;9.174;2022-12-18T14:09:26;30.27;;;17.97;;
13463;SDS011;6804;48.774;9.174;2022-12-18T14:11:57;25.97;;;15.50;;
13463;SDS011;6804;48.774;9.174;2022-12-18T14:14:44;27.00;;;16.13;;
13463;SDS011;6804;48.774;9.174;2022-12-18T14:17:17;27.13;;;16.13;;
13463;SDS011;6804;48.774;9.174;2022-12-18T14:19:45;26.70;;;15.17;;
13463;SDS011;6804;48.774;9.174;2022-12-18T14:22:19;30.37;;;16.67;;
13463;SDS011;6804;48.774;9.174;2022-12-18T14:24:47;27.00;;;15.63;;
13463;SDS011;6804;48.774;9.174;2022-12-18T14:27:41;28.83;;;16.00;;
13463;SDS011;6804;48.774;9.174;2022-12-18T14:33:01;28.60;;;16.40;;
13463;SDS011;6804;48.774;9.174;2022-12-18T14:35:30;27.03;;;15.53;;
13463;SDS011;6804;48.774;9.174;2022-12-18T14:38:11;28.87;;;15.70;;
13463;SDS011;6804;48.774;9.174;2022-12-18T14:41:00;25.30;;;15.00;;
13463;SDS011;6804;48.774;9.174;2022-12-18T14:43:29;25.80;;;14.63;;
13463;SDS011;6804;48.774;9.174;2022-12-18T14:45:59;26.50;;;15.00;;
13463;SDS011;6804;48.774;9.174;2022-12-18T14:48:40;28.53;;;15.67;;
13463;SDS011;6804;48.774;9.174;2022-12-18T14:51:14;29.30;;;16.07;;
13463;SDS011;6804;48.774;9.174;2022-12-18T14:53:53;26.57;;;14.93;;
13463;SDS011;6804;48.774;9.174;2022-12-18T14:56:26;25.20;;;15.00;;
13463;SDS011;6804;48.774;9.174;2022-12-18T14:58:59;26.27;;;15.97;;
13463;SDS011;6804;48.774;9.174;2022-12-18T15:01:29;26.53;;;15.10;;
13463;SDS011;6804;48.774;9.174;2022-12-18T15:04:01;26.10;;;16.03;;
13463;SDS011;6804;48.774;9.174;2022-12-18T15:06:30;30.03;;;17.37;;
13463;SDS011;6804;48.774;9.174;2022-12-18T15:09:03;30.87;;;16.93;;
13463;SDS011;6804;48.774;9.174;2022-12-18T15:11:34;28.70;;;17.57;;
13463;SDS011;6804;48.774;9.174;2022-12-18T15:14:22;26.43;;;16.00;;
13463;SDS011;6804;48.774;9.174;2022-12-18T15:17:00;30.13;;;16.97;;
13463;SDS011;6804;48.774;9.174;2022-12-18T15:19:37;31.80;;;17.23;;
13463;SDS011;6804;48.774;9.174;2022-12-18T15:22:17;29.17;;;15.77;;
13463;SDS011;6804;48.774;9.174;2022-12-18T15:24:47;29.47;;;17.03;;
13463;SDS011;6804;48.774;9.174;2022-12-18T15:27:21;27.73;;;16.63;;
13463;SDS011;6804;48.774;9.174;2022-12-18T15:30:00;27.30;;;16.73;;
13463;SDS011;6804;48.774;9.174;2022-12-18T15:32:44;30.17;;;17.87;;